sensor_id;sensor_type;location;lat;lon;timestamp;P1;durP1;ratioP1;P2;durP2;ratioP2
43552;SDS011;29153;42.696;23.218;2023-02-15T00:02:04;223.00;;;55.12;;
43552;SDS011;29153;42.696;23.218;2023-02-15T00:04:32;220.70;;;54.53;;
43552;SDS011;29153;42.696;23.218;2023-02-15T00:07:12;127.65;;;37.90;;
43552;SDS011;29153;42.696;23.218;2023-02-15T00:09:41;99.52;;;30.37;;
43552;SDS011;29153;42.696;23.218;2023-02-15T00:12:09;87.72;;;26.70;;
43552;SDS011;29153;42.696;23.218;2023-02-15T00:14:36;85.97;;;28.83;;
43552;SDS011;29153;42.696;23.218;2023-02-15T00:17:16;111.25;;;35.90;;
43552;SDS011;29153;42.696;23.218;2023-02-15T00:19:44;113.30;;;33.78;;
43552;SDS011;29153;42.696;23.218;2023-02-15T00:22:11;130.32;;;34.85;;
43552;SDS011;29153;42.696;23.218;2023-02-15T00:24:44;58.98;;;19.80;;
43552;SDS011;29153;42.696;23.218;2023-02-15T00:27:15;52.17;;;21.30;;
43552;SDS011;29153;42.696;23.218;2023-02-15T00:29:42;52.95;;;21.23;;
43552;SDS011;29153;42.696;23.218;2023-02-15T00:32:10;119.93;;;45.78;;
43552;SDS011;29153;42.696;23.218;2023-02-15T00:34:41;47.75;;;18.90;;
43552;SDS011;29153;42.696;23.218;2023-02-15T00:37:11;46.08;;;19.45;;
43552;SDS011;29153;42.696;23.218;2023-02-15T00:39:41;49.85;;;20.45;;
43552;SDS011;29153;42.696;23.218;2023-02-15T00:42:09;78.35;;;28.40;;
43552;SDS011;29153;42.696;23.218;2023-02-15T00:44:36;76.35;;;27.93;;
43552;SDS011;29153;42.696;23.218;2023-02-15T00:47:04;93.33;;;30.55;;
43552;SDS011;29153;42.696;23.218;2023-02-15T00:52:02;71.22;;;23.22;;
43552;SDS011;29153;42.696;23.218;2023-02-15T00:54:31;131.43;;;37.95;;
43552;SDS011;29153;42.696;23.218;2023-02-15T00:59:30;65.37;;;21.50;;
43552;SDS011;29153;42.696;23.218;2023-02-15T01:04:24;55.20;;;19.52;;
43552;SDS011;29153;42.696;23.218;2023-02-15T01:06:51;69.82;;;23.25;;
43552;SDS011;29153;42.696;23.218;2023-02-15T01:09:19;59.03;;;22.13;;
43552;SDS011;29153;42.696;23.218;2023-02-15T01:11:46;114.37;;;34.23;;
43552;SDS011;29153;42.696;23.218;2023-02-15T01:14:14;70.45;;;22.62;;
43552;SDS011;29153;42.696;23.218;2023-02-15T01:16:41;100.38;;;31.65;;
43552;SDS011;29153;42.696;23.218;2023-02-15T01:19:09;195.70;;;51.68;;
43552;SDS011;29153;42.696;23.218;2023-02-15T01:21:37;104.65;;;33.63;;
43552;SDS011;29153;42.696;23.218;2023-02-15T01:26:34;86.17;;;27.17;;
43552;SDS011;29153;42.696;23.218;2023-02-15T01:29:01;140.25;;;39.75;;
43552;SDS011;29153;42.696;23.218;2023-02-15T01:31:29;291.05;;;71.40;;
43552;SDS011;29153;42.696;23.218;2023-02-15T01:33:56;150.53;;;44.03;;
43552;SDS011;29153;42.696;23.218;2023-02-15T01:36:24;148.60;;;41.28;;
43552;SDS011;29153;42.696;23.218;2023-02-15T01:38:52;127.80;;;38.38;;
43552;SDS011;29153;42.696;23.218;2023-02-15T01:41:21;59.40;;;19.73;;
43552;SDS011;29153;42.696;23.218;2023-02-15T01:43:56;57.73;;;20.30;;
43552;SDS011;29153;42.696;23.218;2023-02-15T01:46:45;37.53;;;15.43;;
43552;SDS011;29153;42.696;23.218;2023-02-15T01:49:07;59.58;;;20.62;;
43552;SDS011;29153;42.696;23.218;2023-02-15T01:51:38;104.47;;;30.45;;
43552;SDS011;29153;42.696;23.218;2023-02-15T01:54:14;142.82;;;36.42;;
43552;SDS011;29153;42.696;23.218;2023-02-15T01:56:41;93.05;;;29.90;;
43552;SDS011;29153;42.696;23.218;2023-02-15T01:59:13;87.85;;;27.15;;
43552;SDS011;29153;42.696;23.218;2023-02-15T02:01:42;61.40;;;20.72;;
43552;SDS011;29153;42.696;23.218;2023-02-15T02:04:54;218.60;;;51.75;;
43552;SDS011;29153;42.696;23.218;2023-02-15T02:06:59;117.93;;;29.95;;
43552;SDS011;29153;42.696;23.218;2023-02-15T02:09:27;147.35;;;36.85;;
43552;SDS011;29153;42.696;23.218;2023-02-15T02:11:55;92.95;;;28.67;;
43552;SDS011;29153;42.696;23.218;2023-02-15T02:14:23;63.02;;;21.62;;
43552;SDS011;29153;42.696;23.218;2023-02-15T02:17:00;60.63;;;22.67;;
43552;SDS011;29153;42.696;23.218;2023-02-15T02:27:56;45.50;;;17.45;;
43552;SDS011;29153;42.696;23.218;2023-02-15T02:35:44;141.88;;;40.90;;
43552;SDS011;29153;42.696;23.218;2023-02-15T02:38:16;131.97;;;36.25;;
43552;SDS011;29153;42.696;23.218;2023-02-15T02:41:38;91.45;;;29.92;;
43552;SDS011;29153;42.696;23.218;2023-02-15T02:43:35;169.37;;;51.55;;
43552;SDS011;29153;42.696;23.218;2023-02-15T02:46:10;60.00;;;22.05;;
43552;SDS011;29153;42.696;23.218;2023-02-15T02:48:37;77.75;;;29.87;;
43552;SDS011;29153;42.696;23.218;2023-02-15T02:51:05;49.73;;;20.95;;
43552;SDS011;29153;42.696;23.218;2023-02-15T02:53:33;41.45;;;16.82;;
43552;SDS011;29153;42.696;23.218;2023-02-15T02:56:20;42.13;;;17.07;;
43552;SDS011;29153;42.696;23.218;2023-02-15T02:58:58;34.27;;;13.60;;
43552;SDS011;29153;42.696;23.218;2023-02-15T03:01:33;47.70;;;18.10;;
43552;SDS011;29153;42.696;23.218;2023-02-15T03:04:04;46.33;;;18.45;;
43552;SDS011;29153;42.696;23.218;2023-02-15T03:06:44;42.85;;;18.60;;
43552;SDS011;29153;42.696;23.218;2023-02-15T03:09:17;45.00;;;19.35;;
43552;SDS011;29153;42.696;23.218;2023-02-15T03:11:53;33.83;;;15.00;;
43552;SDS011;29153;42.696;23.218;2023-02-15T03:14:21;42.62;;;17.25;;
43552;SDS011;29153;42.696;23.218;2023-02-15T03:17:08;46.53;;;18.90;;
43552;SDS011;29153;42.696;23.218;2023-02-15T03:19:42;35.33;;;15.28;;
43552;SDS011;29153;42.696;23.218;2023-02-15T03:22:21;39.60;;;16.42;;
43552;SDS011;29153;42.696;23.218;2023-02-15T03:25:08;44.25;;;18.57;;
43552;SDS011;29153;42.696;23.218;2023-02-15T03:27:45;46.20;;;19.42;;
43552;SDS011;29153;42.696;23.218;2023-02-15T03:30:19;52.40;;;22.20;;
43552;SDS011;29153;42.696;23.218;2023-02-15T03:32:49;35.00;;;15.58;;
43552;SDS011;29153;42.696;23.218;2023-02-15T03:35:21;59.98;;;22.65;;
43552;SDS011;29153;42.696;23.218;2023-02-15T03:37:56;53.20;;;21.42;;
43552;SDS011;29153;42.696;23.218;2023-02-15T03:47:15;42.35;;;17.60;;
43552;SDS011;29153;42.696;23.218;2023-02-15T03:52:17;48.63;;;21.17;;
43552;SDS011;29153;42.696;23.218;2023-02-15T03:54:49;39.92;;;17.52;;
43552;SDS011;29153;42.696;23.218;2023-02-15T03:57:21;38.28;;;17.20;;
43552;SDS011;29153;42.696;23.218;2023-02-15T04:00:16;38.60;;;16.35;;
43552;SDS011;29153;42.696;23.218;2023-02-15T04:05:38;36.13;;;17.52;;
43552;SDS011;29153;42.696;23.218;2023-02-15T04:10:37;35.13;;;14.75;;
43552;SDS011;29153;42.696;23.218;2023-02-15T04:13:31;39.63;;;17.70;;
43552;SDS011;29153;42.696;23.218;2023-02-15T04:26:23;42.03;;;18.25;;
43552;SDS011;29153;42.696;23.218;2023-02-15T04:29:27;49.42;;;19.45;;
43552;SDS011;29153;42.696;23.218;2023-02-15T04:35:19;38.70;;;18.15;;
43552;SDS011;29153;42.696;23.218;2023-02-15T04:37:47;46.68;;;19.25;;
43552;SDS011;29153;42.696;23.218;2023-02-15T04:40:22;41.30;;;18.42;;
43552;SDS011;29153;42.696;23.218;2023-02-15T04:46:12;36.85;;;15.40;;
43552;SDS011;29153;42.696;23.218;2023-02-15T04:48:44;41.37;;;17.70;;
43552;SDS011;29153;42.696;23.218;2023-02-15T04:51:14;38.23;;;15.70;;
43552;SDS011;29153;42.696;23.218;2023-02-15T04:53:41;38.98;;;17.52;;
43552;SDS011;29153;42.696;23.218;2023-02-15T04:56:09;39.25;;;17.12;;
43552;SDS011;29153;42.696;23.218;2023-02-15T04:58:38;43.23;;;18.17;;
43552;SDS011;29153;42.696;23.218;2023-02-15T05:01:10;40.55;;;17.42;;
43552;SDS011;29153;42.696;23.218;2023-02-15T05:03:37;45.73;;;19.12;;
43552;SDS011;29153;42.696;23.218;2023-02-15T05:06:05;39.35;;;17.42;;
43552;SDS011;29153;42.696;23.218;2023-02-15T05:08:32;42.40;;;18.87;;
43552;SDS011;29153;42.696;23.218;2023-02-15T05:11:01;39.95;;;18.12;;
43552;SDS011;29153;42.696;23.218;2023-02-15T05:13:29;60.90;;;20.12;;
43552;SDS011;29153;42.696;23.218;2023-02-15T05:15:56;113.72;;;32.83;;
43552;SDS011;29153;42.696;23.218;2023-02-15T05:18:24;68.55;;;23.32;;
43552;SDS011;29153;42.696;23.218;2023-02-15T05:20:55;56.40;;;23.38;;
43552;SDS011;29153;42.696;23.218;2023-02-15T05:23:28;114.80;;;38.45;;
43552;SDS011;29153;42.696;23.218;2023-02-15T05:25:56;135.35;;;43.17;;
43552;SDS011;29153;42.696;23.218;2023-02-15T05:28:46;63.63;;;28.40;;
43552;SDS011;29153;42.696;23.218;2023-02-15T05:31:14;60.43;;;28.00;;
43552;SDS011;29153;42.696;23.218;2023-02-15T05:33:45;49.45;;;23.30;;
43552;SDS011;29153;42.696;23.218;2023-02-15T05:36:20;51.50;;;21.90;;
43552;SDS011;29153;42.696;23.218;2023-02-15T05:38:49;42.38;;;19.67;;
43552;SDS011;29153;42.696;23.218;2023-02-15T05:41:19;40.88;;;20.48;;
43552;SDS011;29153;42.696;23.218;2023-02-15T05:43:48;46.30;;;22.80;;
43552;SDS011;29153;42.696;23.218;2023-02-15T05:46:20;42.45;;;20.40;;
43552;SDS011;29153;42.696;23.218;2023-02-15T05:55:48;50.30;;;20.92;;
43552;SDS011;29153;42.696;23.218;2023-02-15T05:58:31;95.12;;;34.33;;
43552;SDS011;29153;42.696;23.218;2023-02-15T06:03:53;32.85;;;13.58;;
43552;SDS011;29153;42.696;23.218;2023-02-15T06:28:21;49.67;;;20.50;;
43552;SDS011;29153;42.696;23.218;2023-02-15T06:30:51;42.17;;;18.32;;
43552;SDS011;29153;42.696;23.218;2023-02-15T06:33:21;54.30;;;22.02;;
43552;SDS011;29153;42.696;23.218;2023-02-15T06:35:49;39.88;;;16.48;;
43552;SDS011;29153;42.696;23.218;2023-02-15T06:38:17;40.98;;;17.27;;
43552;SDS011;29153;42.696;23.218;2023-02-15T06:40:44;36.80;;;15.40;;
43552;SDS011;29153;42.696;23.218;2023-02-15T06:43:12;41.33;;;16.27;;
43552;SDS011;29153;42.696;23.218;2023-02-15T06:45:41;47.90;;;20.02;;
43552;SDS011;29153;42.696;23.218;2023-02-15T06:48:08;42.38;;;17.55;;
43552;SDS011;29153;42.696;23.218;2023-02-15T06:50:36;34.33;;;14.68;;
43552;SDS011;29153;42.696;23.218;2023-02-15T06:53:04;33.73;;;14.43;;
43552;SDS011;29153;42.696;23.218;2023-02-15T06:55:31;53.63;;;22.80;;
43552;SDS011;29153;42.696;23.218;2023-02-15T06:58:01;38.10;;;17.23;;
43552;SDS011;29153;42.696;23.218;2023-02-15T07:00:28;35.83;;;15.70;;
43552;SDS011;29153;42.696;23.218;2023-02-15T07:02:58;41.63;;;18.92;;
43552;SDS011;29153;42.696;23.218;2023-02-15T07:05:28;66.87;;;27.77;;
43552;SDS011;29153;42.696;23.218;2023-02-15T07:07:57;36.60;;;15.32;;
43552;SDS011;29153;42.696;23.218;2023-02-15T07:10:24;47.53;;;17.82;;
43552;SDS011;29153;42.696;23.218;2023-02-15T07:12:53;27.27;;;12.35;;
43552;SDS011;29153;42.696;23.218;2023-02-15T07:15:20;118.22;;;43.63;;
43552;SDS011;29153;42.696;23.218;2023-02-15T07:17:48;41.75;;;17.27;;
43552;SDS011;29153;42.696;23.218;2023-02-15T07:20:17;41.23;;;15.40;;
43552;SDS011;29153;42.696;23.218;2023-02-15T07:23:06;31.75;;;11.35;;
43552;SDS011;29153;42.696;23.218;2023-02-15T07:25:34;26.68;;;10.43;;
43552;SDS011;29153;42.696;23.218;2023-02-15T07:28:02;26.40;;;10.78;;
43552;SDS011;29153;42.696;23.218;2023-02-15T07:30:30;44.75;;;20.80;;
43552;SDS011;29153;42.696;23.218;2023-02-15T07:32:58;27.87;;;11.35;;
43552;SDS011;29153;42.696;23.218;2023-02-15T07:35:50;33.23;;;11.43;;
43552;SDS011;29153;42.696;23.218;2023-02-15T07:38:24;26.77;;;11.57;;
43552;SDS011;29153;42.696;23.218;2023-02-15T07:41:01;23.60;;;10.53;;
43552;SDS011;29153;42.696;23.218;2023-02-15T07:43:26;24.90;;;10.00;;
43552;SDS011;29153;42.696;23.218;2023-02-15T07:45:58;29.10;;;13.03;;
43552;SDS011;29153;42.696;23.218;2023-02-15T07:48:27;38.98;;;15.65;;
43552;SDS011;29153;42.696;23.218;2023-02-15T07:50:58;32.73;;;12.60;;
43552;SDS011;29153;42.696;23.218;2023-02-15T07:53:27;33.83;;;13.28;;
43552;SDS011;29153;42.696;23.218;2023-02-15T07:55:58;36.05;;;14.45;;
43552;SDS011;29153;42.696;23.218;2023-02-15T07:58:32;23.00;;;10.03;;
43552;SDS011;29153;42.696;23.218;2023-02-15T08:01:01;45.50;;;17.30;;
43552;SDS011;29153;42.696;23.218;2023-02-15T08:03:30;33.95;;;13.72;;
43552;SDS011;29153;42.696;23.218;2023-02-15T08:05:58;22.80;;;9.78;;
43552;SDS011;29153;42.696;23.218;2023-02-15T08:08:26;23.95;;;10.25;;
43552;SDS011;29153;42.696;23.218;2023-02-15T08:10:57;23.55;;;9.33;;
43552;SDS011;29153;42.696;23.218;2023-02-15T08:13:50;39.18;;;15.25;;
43552;SDS011;29153;42.696;23.218;2023-02-15T08:16:21;23.75;;;9.53;;
43552;SDS011;29153;42.696;23.218;2023-02-15T08:18:54;18.23;;;8.75;;
43552;SDS011;29153;42.696;23.218;2023-02-15T08:21:23;17.48;;;7.95;;
43552;SDS011;29153;42.696;23.218;2023-02-15T08:23:58;23.18;;;9.83;;
43552;SDS011;29153;42.696;23.218;2023-02-15T08:26:27;26.45;;;13.65;;
43552;SDS011;29153;42.696;23.218;2023-02-15T08:28:56;21.05;;;10.08;;
43552;SDS011;29153;42.696;23.218;2023-02-15T08:31:25;21.20;;;9.88;;
43552;SDS011;29153;42.696;23.218;2023-02-15T08:33:54;21.15;;;9.40;;
43552;SDS011;29153;42.696;23.218;2023-02-15T08:36:23;21.27;;;8.85;;
43552;SDS011;29153;42.696;23.218;2023-02-15T08:38:53;28.52;;;13.40;;
43552;SDS011;29153;42.696;23.218;2023-02-15T08:41:22;20.27;;;9.38;;
43552;SDS011;29153;42.696;23.218;2023-02-15T08:43:54;24.40;;;10.60;;
43552;SDS011;29153;42.696;23.218;2023-02-15T08:46:23;21.97;;;10.13;;
43552;SDS011;29153;42.696;23.218;2023-02-15T08:48:53;22.22;;;11.18;;
43552;SDS011;29153;42.696;23.218;2023-02-15T08:51:24;24.65;;;9.43;;
43552;SDS011;29153;42.696;23.218;2023-02-15T08:53:56;19.95;;;9.13;;
43552;SDS011;29153;42.696;23.218;2023-02-15T08:56:27;28.07;;;12.40;;
43552;SDS011;29153;42.696;23.218;2023-02-15T08:59:00;22.17;;;9.05;;
43552;SDS011;29153;42.696;23.218;2023-02-15T09:01:28;22.70;;;10.72;;
43552;SDS011;29153;42.696;23.218;2023-02-15T09:04:01;22.35;;;10.58;;
43552;SDS011;29153;42.696;23.218;2023-02-15T09:06:30;46.88;;;17.20;;
43552;SDS011;29153;42.696;23.218;2023-02-15T09:08:58;25.40;;;12.05;;
43552;SDS011;29153;42.696;23.218;2023-02-15T09:11:27;23.38;;;11.03;;
43552;SDS011;29153;42.696;23.218;2023-02-15T09:14:00;26.48;;;11.30;;
43552;SDS011;29153;42.696;23.218;2023-02-15T09:16:31;24.18;;;11.05;;
43552;SDS011;29153;42.696;23.218;2023-02-15T09:19:00;26.68;;;11.60;;
43552;SDS011;29153;42.696;23.218;2023-02-15T09:21:29;24.07;;;11.57;;
43552;SDS011;29153;42.696;23.218;2023-02-15T09:26:26;19.98;;;9.58;;
43552;SDS011;29153;42.696;23.218;2023-02-15T09:28:56;21.87;;;10.25;;
43552;SDS011;29153;42.696;23.218;2023-02-15T09:31:27;21.52;;;10.30;;
43552;SDS011;29153;42.696;23.218;2023-02-15T09:33:57;23.12;;;9.83;;
43552;SDS011;29153;42.696;23.218;2023-02-15T09:36:30;25.08;;;10.85;;
43552;SDS011;29153;42.696;23.218;2023-02-15T09:39:07;22.55;;;10.58;;
43552;SDS011;29153;42.696;23.218;2023-02-15T09:44:51;20.77;;;10.15;;
43552;SDS011;29153;42.696;23.218;2023-02-15T09:50:20;33.90;;;13.98;;
43552;SDS011;29153;42.696;23.218;2023-02-15T09:55:55;23.70;;;10.60;;
43552;SDS011;29153;42.696;23.218;2023-02-15T10:00:58;25.15;;;12.05;;
43552;SDS011;29153;42.696;23.218;2023-02-15T10:03:33;25.82;;;11.97;;
43552;SDS011;29153;42.696;23.218;2023-02-15T10:11:26;29.27;;;13.58;;
43552;SDS011;29153;42.696;23.218;2023-02-15T10:25:37;24.47;;;11.38;;
43552;SDS011;29153;42.696;23.218;2023-02-15T10:28:18;27.17;;;12.63;;
43552;SDS011;29153;42.696;23.218;2023-02-15T10:33:30;22.90;;;11.33;;
43552;SDS011;29153;42.696;23.218;2023-02-15T10:36:11;27.85;;;12.20;;
43552;SDS011;29153;42.696;23.218;2023-02-15T10:39:02;24.30;;;11.60;;
43552;SDS011;29153;42.696;23.218;2023-02-15T10:42:30;24.95;;;12.33;;
43552;SDS011;29153;42.696;23.218;2023-02-15T10:46:56;24.57;;;11.90;;
43552;SDS011;29153;42.696;23.218;2023-02-15T10:52:25;24.95;;;11.75;;
43552;SDS011;29153;42.696;23.218;2023-02-15T10:54:57;33.05;;;14.23;;
43552;SDS011;29153;42.696;23.218;2023-02-15T10:57:32;24.82;;;11.68;;
43552;SDS011;29153;42.696;23.218;2023-02-15T11:00:03;25.10;;;11.28;;
43552;SDS011;29153;42.696;23.218;2023-02-15T11:05:41;29.23;;;13.50;;
43552;SDS011;29153;42.696;23.218;2023-02-15T11:08:15;26.20;;;12.20;;
43552;SDS011;29153;42.696;23.218;2023-02-15T11:10:46;30.70;;;12.73;;
43552;SDS011;29153;42.696;23.218;2023-02-15T11:13:18;24.00;;;10.95;;
43552;SDS011;29153;42.696;23.218;2023-02-15T11:15:54;26.33;;;12.18;;
43552;SDS011;29153;42.696;23.218;2023-02-15T11:18:36;24.18;;;10.08;;
43552;SDS011;29153;42.696;23.218;2023-02-15T11:23:49;21.75;;;10.05;;
43552;SDS011;29153;42.696;23.218;2023-02-15T11:31:49;26.50;;;12.45;;
43552;SDS011;29153;42.696;23.218;2023-02-15T11:34:19;26.17;;;11.10;;
43552;SDS011;29153;42.696;23.218;2023-02-15T11:36:51;24.75;;;11.85;;
43552;SDS011;29153;42.696;23.218;2023-02-15T11:39:22;24.43;;;11.90;;
43552;SDS011;29153;42.696;23.218;2023-02-15T11:41:55;23.38;;;10.75;;
43552;SDS011;29153;42.696;23.218;2023-02-15T11:44:32;24.30;;;12.07;;
43552;SDS011;29153;42.696;23.218;2023-02-15T11:47:09;24.70;;;11.18;;
43552;SDS011;29153;42.696;23.218;2023-02-15T11:49:38;41.20;;;17.75;;
43552;SDS011;29153;42.696;23.218;2023-02-15T11:52:07;28.57;;;13.62;;
43552;SDS011;29153;42.696;23.218;2023-02-15T11:54:45;90.87;;;41.18;;
43552;SDS011;29153;42.696;23.218;2023-02-15T11:59:48;151.02;;;78.85;;
43552;SDS011;29153;42.696;23.218;2023-02-15T12:02:33;32.42;;;14.47;;
43552;SDS011;29153;42.696;23.218;2023-02-15T12:05:06;39.05;;;18.57;;
43552;SDS011;29153;42.696;23.218;2023-02-15T12:07:43;31.52;;;14.55;;
43552;SDS011;29153;42.696;23.218;2023-02-15T12:10:28;28.15;;;12.58;;
43552;SDS011;29153;42.696;23.218;2023-02-15T12:13:17;26.70;;;11.85;;
43552;SDS011;29153;42.696;23.218;2023-02-15T12:15:52;25.52;;;12.28;;
43552;SDS011;29153;42.696;23.218;2023-02-15T12:18:36;24.60;;;11.88;;
43552;SDS011;29153;42.696;23.218;2023-02-15T12:21:10;24.23;;;12.13;;
43552;SDS011;29153;42.696;23.218;2023-02-15T12:23:53;27.20;;;12.70;;
43552;SDS011;29153;42.696;23.218;2023-02-15T12:26:23;26.57;;;12.03;;
43552;SDS011;29153;42.696;23.218;2023-02-15T12:28:52;29.60;;;11.97;;
43552;SDS011;29153;42.696;23.218;2023-02-15T12:31:28;25.88;;;12.45;;
43552;SDS011;29153;42.696;23.218;2023-02-15T12:34:00;21.00;;;10.32;;
43552;SDS011;29153;42.696;23.218;2023-02-15T12:36:39;25.43;;;10.72;;
43552;SDS011;29153;42.696;23.218;2023-02-15T12:39:24;27.40;;;12.65;;
43552;SDS011;29153;42.696;23.218;2023-02-15T12:41:45;27.70;;;12.07;;
43552;SDS011;29153;42.696;23.218;2023-02-15T12:44:24;26.00;;;13.03;;
43552;SDS011;29153;42.696;23.218;2023-02-15T12:46:57;31.65;;;14.53;;
43552;SDS011;29153;42.696;23.218;2023-02-15T12:49:37;32.48;;;15.30;;
43552;SDS011;29153;42.696;23.218;2023-02-15T12:51:58;25.20;;;12.58;;
43552;SDS011;29153;42.696;23.218;2023-02-15T12:54:35;26.40;;;12.98;;
43552;SDS011;29153;42.696;23.218;2023-02-15T12:57:14;30.35;;;14.28;;
43552;SDS011;29153;42.696;23.218;2023-02-15T12:59:53;32.17;;;15.75;;
43552;SDS011;29153;42.696;23.218;2023-02-15T13:02:24;29.75;;;11.38;;
43552;SDS011;29153;42.696;23.218;2023-02-15T13:04:49;24.65;;;10.93;;
43552;SDS011;29153;42.696;23.218;2023-02-15T13:07:17;23.65;;;11.30;;
43552;SDS011;29153;42.696;23.218;2023-02-15T13:09:46;24.12;;;11.88;;
43552;SDS011;29153;42.696;23.218;2023-02-15T13:12:24;29.98;;;13.10;;
43552;SDS011;29153;42.696;23.218;2023-02-15T13:14:54;28.27;;;12.98;;
43552;SDS011;29153;42.696;23.218;2023-02-15T13:17:31;28.00;;;12.18;;
43552;SDS011;29153;42.696;23.218;2023-02-15T13:20:18;24.47;;;10.48;;
43552;SDS011;29153;42.696;23.218;2023-02-15T13:22:50;26.62;;;10.90;;
43552;SDS011;29153;42.696;23.218;2023-02-15T13:25:20;27.02;;;12.10;;
43552;SDS011;29153;42.696;23.218;2023-02-15T13:28:02;32.48;;;13.18;;
43552;SDS011;29153;42.696;23.218;2023-02-15T13:30:36;25.82;;;11.63;;
43552;SDS011;29153;42.696;23.218;2023-02-15T13:33:28;26.15;;;11.90;;
43552;SDS011;29153;42.696;23.218;2023-02-15T13:48:24;26.85;;;11.57;;
43552;SDS011;29153;42.696;23.218;2023-02-15T13:51:08;26.77;;;13.48;;
43552;SDS011;29153;42.696;23.218;2023-02-15T14:08:11;28.55;;;12.78;;
43552;SDS011;29153;42.696;23.218;2023-02-15T14:10:50;24.32;;;11.93;;
43552;SDS011;29153;42.696;23.218;2023-02-15T14:19:11;25.95;;;12.65;;
43552;SDS011;29153;42.696;23.218;2023-02-15T14:30:25;27.82;;;12.95;;
43552;SDS011;29153;42.696;23.218;2023-02-15T14:32:56;27.35;;;13.22;;
43552;SDS011;29153;42.696;23.218;2023-02-15T14:35:42;29.57;;;13.40;;
43552;SDS011;29153;42.696;23.218;2023-02-15T14:38:21;28.95;;;13.35;;
43552;SDS011;29153;42.696;23.218;2023-02-15T14:41:01;30.23;;;13.30;;
43552;SDS011;29153;42.696;23.218;2023-02-15T14:49:12;50.80;;;20.72;;
43552;SDS011;29153;42.696;23.218;2023-02-15T15:04:43;37.70;;;15.38;;
43552;SDS011;29153;42.696;23.218;2023-02-15T15:07:25;33.23;;;14.70;;
43552;SDS011;29153;42.696;23.218;2023-02-15T15:09:59;32.17;;;15.05;;
43552;SDS011;29153;42.696;23.218;2023-02-15T15:15:06;34.98;;;15.45;;
43552;SDS011;29153;42.696;23.218;2023-02-15T15:22:43;33.33;;;15.05;;
43552;SDS011;29153;42.696;23.218;2023-02-15T15:28:00;31.75;;;15.18;;
43552;SDS011;29153;42.696;23.218;2023-02-15T15:33:06;30.95;;;14.28;;
43552;SDS011;29153;42.696;23.218;2023-02-15T15:41:18;37.78;;;15.10;;
43552;SDS011;29153;42.696;23.218;2023-02-15T15:49:27;33.80;;;15.78;;
43552;SDS011;29153;42.696;23.218;2023-02-15T15:51:58;27.75;;;13.38;;
43552;SDS011;29153;42.696;23.218;2023-02-15T15:54:28;32.60;;;13.75;;
43552;SDS011;29153;42.696;23.218;2023-02-15T15:56:58;32.93;;;14.47;;
43552;SDS011;29153;42.696;23.218;2023-02-15T15:59:29;35.52;;;17.10;;
43552;SDS011;29153;42.696;23.218;2023-02-15T16:02:05;39.20;;;17.80;;
43552;SDS011;29153;42.696;23.218;2023-02-15T16:04:34;46.37;;;20.17;;
43552;SDS011;29153;42.696;23.218;2023-02-15T16:09:55;53.48;;;26.25;;
43552;SDS011;29153;42.696;23.218;2023-02-15T16:12:27;50.43;;;24.23;;
43552;SDS011;29153;42.696;23.218;2023-02-15T16:14:57;38.85;;;19.15;;
43552;SDS011;29153;42.696;23.218;2023-02-15T16:17:31;47.55;;;19.98;;
43552;SDS011;29153;42.696;23.218;2023-02-15T16:20:03;56.45;;;25.17;;
43552;SDS011;29153;42.696;23.218;2023-02-15T16:22:34;55.60;;;24.30;;
43552;SDS011;29153;42.696;23.218;2023-02-15T16:28:05;64.92;;;26.77;;
43552;SDS011;29153;42.696;23.218;2023-02-15T16:30:29;100.02;;;36.25;;
43552;SDS011;29153;42.696;23.218;2023-02-15T16:33:16;91.10;;;33.70;;
43552;SDS011;29153;42.696;23.218;2023-02-15T16:36:03;233.28;;;80.12;;
43552;SDS011;29153;42.696;23.218;2023-02-15T16:43:53;72.35;;;27.93;;
43552;SDS011;29153;42.696;23.218;2023-02-15T16:46:26;58.73;;;28.95;;
43552;SDS011;29153;42.696;23.218;2023-02-15T16:48:57;55.63;;;24.23;;
43552;SDS011;29153;42.696;23.218;2023-02-15T16:51:30;41.65;;;17.80;;
43552;SDS011;29153;42.696;23.218;2023-02-15T16:54:07;66.10;;;21.37;;
43552;SDS011;29153;42.696;23.218;2023-02-15T16:56:35;52.13;;;18.62;;
43552;SDS011;29153;42.696;23.218;2023-02-15T16:59:04;47.13;;;18.25;;
43552;SDS011;29153;42.696;23.218;2023-02-15T17:01:32;46.53;;;18.30;;
43552;SDS011;29153;42.696;23.218;2023-02-15T17:07:04;32.78;;;14.73;;
43552;SDS011;29153;42.696;23.218;2023-02-15T17:09:48;37.33;;;15.15;;
43552;SDS011;29153;42.696;23.218;2023-02-15T17:18:10;36.58;;;16.67;;
43552;SDS011;29153;42.696;23.218;2023-02-15T17:20:45;32.85;;;16.00;;
43552;SDS011;29153;42.696;23.218;2023-02-15T17:23:26;41.20;;;17.67;;
43552;SDS011;29153;42.696;23.218;2023-02-15T17:26:15;43.63;;;20.57;;
43552;SDS011;29153;42.696;23.218;2023-02-15T17:28:48;49.53;;;21.65;;
43552;SDS011;29153;42.696;23.218;2023-02-15T17:31:18;38.13;;;17.17;;
43552;SDS011;29153;42.696;23.218;2023-02-15T17:33:48;37.90;;;16.30;;
43552;SDS011;29153;42.696;23.218;2023-02-15T17:36:18;39.03;;;16.20;;
43552;SDS011;29153;42.696;23.218;2023-02-15T17:41:32;39.35;;;16.05;;
43552;SDS011;29153;42.696;23.218;2023-02-15T17:43:58;40.17;;;15.68;;
43552;SDS011;29153;42.696;23.218;2023-02-15T17:46:25;36.77;;;16.10;;
43552;SDS011;29153;42.696;23.218;2023-02-15T17:48:57;36.70;;;16.90;;
43552;SDS011;29153;42.696;23.218;2023-02-15T17:51:25;35.63;;;16.62;;
43552;SDS011;29153;42.696;23.218;2023-02-15T17:53:53;35.58;;;14.98;;
43552;SDS011;29153;42.696;23.218;2023-02-15T17:56:38;36.40;;;16.12;;
43552;SDS011;29153;42.696;23.218;2023-02-15T17:59:06;33.53;;;14.90;;
43552;SDS011;29153;42.696;23.218;2023-02-15T18:01:37;38.38;;;16.80;;
43552;SDS011;29153;42.696;23.218;2023-02-15T18:04:24;29.70;;;13.28;;
43552;SDS011;29153;42.696;23.218;2023-02-15T18:07:10;35.17;;;14.85;;
43552;SDS011;29153;42.696;23.218;2023-02-15T18:09:57;29.75;;;14.63;;
43552;SDS011;29153;42.696;23.218;2023-02-15T18:12:42;31.12;;;14.28;;
43552;SDS011;29153;42.696;23.218;2023-02-15T18:15:10;30.68;;;13.35;;
43552;SDS011;29153;42.696;23.218;2023-02-15T18:17:43;30.23;;;13.18;;
43552;SDS011;29153;42.696;23.218;2023-02-15T18:20:21;33.40;;;14.15;;
43552;SDS011;29153;42.696;23.218;2023-02-15T18:22:52;29.63;;;12.73;;
43552;SDS011;29153;42.696;23.218;2023-02-15T18:25:24;27.87;;;12.10;;
43552;SDS011;29153;42.696;23.218;2023-02-15T18:27:54;27.50;;;12.45;;
43552;SDS011;29153;42.696;23.218;2023-02-15T18:33:27;26.20;;;12.40;;
43552;SDS011;29153;42.696;23.218;2023-02-15T18:36:04;30.75;;;13.22;;
43552;SDS011;29153;42.696;23.218;2023-02-15T18:38:39;30.08;;;12.90;;
43552;SDS011;29153;42.696;23.218;2023-02-15T18:41:19;29.27;;;12.85;;
43552;SDS011;29153;42.696;23.218;2023-02-15T18:43:50;25.70;;;12.03;;
43552;SDS011;29153;42.696;23.218;2023-02-15T18:46:21;35.08;;;14.55;;
43552;SDS011;29153;42.696;23.218;2023-02-15T18:48:50;26.87;;;12.47;;
43552;SDS011;29153;42.696;23.218;2023-02-15T18:54:14;22.65;;;10.50;;